Time;durP1;ratioP1;P1;durP2;ratioP2;P2;SDS_P1;SDS_P2;PMS_P1;PMS_P2;Temp;Humidity;BMP_temperature;BMP_pressure;BME280_temperature;BME280_humidity;BME280_pressure;Samples;Min_cycle;Max_cycle;Signal;HPM_P1;HPM_P2
2023/08/19 00:03:41;;;;;;;;;;;23.80;61.20;;;;;;8499257;27;20013;-50
2023/08/19 00:07:41;;;;;;;;;;;23.80;61.20;;;;;;8499481;27;19984;-51
2023/08/19 00:11:42;;;;;;;;;;;23.70;61.10;;;;;;8480864;27;19912;-51
2023/08/19 00:15:42;;;;;;;;;;;23.70;61.20;;;;;;8498752;27;20199;-49
2023/08/19 00:19:43;;;;;;;;;;;23.80;61.20;;;;;;8499489;27;20394;-49
2023/08/19 00:23:44;;;;;;;;;;;23.80;61.30;;;;;;8498742;27;20024;-52
2023/08/19 00:27:44;;;;;;;;;;;23.80;61.20;;;;;;8499015;27;19947;-50
2023/08/19 00:31:45;;;;;;;;;;;23.80;61.20;;;;;;8498251;27;20364;-49
2023/08/19 00:35:50;;;;;;;;;;;23.80;61.30;;;;;;8499014;27;20301;-50
2023/08/19 00:39:50;;;;;;;;;;;23.80;61.30;;;;;;8497478;27;19911;-50
2023/08/19 00:43:51;;;;;;;;;;;23.70;61.20;;;;;;8498620;27;19918;-49
2023/08/19 00:47:51;;;;;;;;;;;23.70;61.30;;;;;;8498175;27;19912;-50
2023/08/19 00:51:52;;;;;;;;;;;23.70;61.20;;;;;;8497841;27;19911;-49
2023/08/19 00:55:53;;;;;;;;;;;23.70;61.30;;;;;;8498390;27;19919;-49
2023/08/19 00:59:54;;;;;;;;;;;23.70;61.20;;;;;;8497782;27;19972;-50
2023/08/19 01:03:54;;;;;;;;;;;23.70;61.20;;;;;;8498218;27;20002;-51
2023/08/19 01:07:57;;;;;;;;;;;23.70;61.20;;;;;;8497270;27;19911;-50
2023/08/19 01:12:30;;;;;;;;;;;23.70;61.20;;;;;;8498023;27;20376;-50
2023/08/19 01:16:32;;;;;;;;;;;23.70;61.30;;;;;;8462390;27;20455;-50
2023/08/19 01:20:33;;;;;;;;;;;23.70;61.20;;;;;;8497226;27;19969;-51
2023/08/19 01:24:37;;;;;;;;;;;23.70;61.20;;;;;;8498093;27;19915;-50
2023/08/19 01:28:38;;;;;;;;;;;23.70;61.20;;;;;;8496530;27;19912;-49
2023/08/19 01:32:38;;;;;;;;;;;23.70;61.20;;;;;;8497508;27;19915;-51
2023/08/19 01:36:41;;;;;;;;;;;23.70;61.20;;;;;;8477032;27;19912;-52
2023/08/19 01:40:41;;;;;;;;;;;23.70;61.20;;;;;;8497756;27;19911;-51
2023/08/19 01:44:43;;;;;;;;;;;23.70;61.20;;;;;;8495983;28;19918;-51
2023/08/19 01:48:43;;;;;;;;;;;23.70;61.20;;;;;;8497743;28;19912;-49
2023/08/19 01:52:44;;;;;;;;;;;23.70;61.10;;;;;;8496492;28;19912;-50
2023/08/19 01:56:44;;;;;;;;;;;23.80;61.30;;;;;;8496545;27;19914;-51
2023/08/19 02:00:45;;;;;;;;;;;23.70;61.20;;;;;;8496557;28;19903;-50
2023/08/19 02:04:45;;;;;;;;;;;23.70;61.30;;;;;;8495774;28;19950;-50
2023/08/19 02:08:46;;;;;;;;;;;23.70;61.30;;;;;;8478687;28;19911;-49
2023/08/19 02:12:46;;;;;;;;;;;23.70;61.20;;;;;;8495371;28;20061;-49
2023/08/19 02:16:47;;;;;;;;;;;23.70;61.30;;;;;;8495954;28;19927;-49
2023/08/19 02:20:48;;;;;;;;;;;23.70;61.20;;;;;;8494803;28;19922;-49
2023/08/19 02:24:48;;;;;;;;;;;23.70;61.20;;;;;;8496672;27;19953;-49
2023/08/19 02:28:49;;;;;;;;;;;23.70;61.30;;;;;;8495749;28;20384;-48
2023/08/19 02:32:49;;;;;;;;;;;23.80;61.30;;;;;;8496595;28;19919;-50
2023/08/19 02:36:50;;;;;;;;;;;23.70;61.20;;;;;;8495802;28;19911;-49
2023/08/19 02:40:51;;;;;;;;;;;23.70;61.20;;;;;;8495614;28;19916;-50
2023/08/19 02:44:51;;;;;;;;;;;23.70;61.20;;;;;;8496261;28;19899;-49
2023/08/19 02:48:52;;;;;;;;;;;23.70;61.20;;;;;;8497681;27;19908;-48
2023/08/19 02:52:52;;;;;;;;;;;23.70;61.20;;;;;;8502747;27;19912;-49
2023/08/19 02:56:53;;;;;;;;;;;23.70;61.20;;;;;;8501678;27;19915;-49
2023/08/19 03:00:53;;;;;;;;;;;23.70;61.20;;;;;;8501912;27;20036;-52
2023/08/19 03:04:54;;;;;;;;;;;23.70;61.20;;;;;;8482654;27;19912;-51
2023/08/19 03:08:54;;;;;;;;;;;23.70;61.20;;;;;;8501958;27;19912;-50
2023/08/19 03:12:58;;;;;;;;;;;23.70;61.30;;;;;;8500421;27;20359;-49
2023/08/19 03:16:59;;;;;;;;;;;23.70;61.30;;;;;;8501551;27;19924;-51
2023/08/19 03:21:00;;;;;;;;;;;23.70;61.30;;;;;;8500890;27;19959;-51
2023/08/19 03:25:00;;;;;;;;;;;23.70;61.30;;;;;;8500927;27;19942;-50
2023/08/19 03:29:01;;;;;;;;;;;23.70;61.30;;;;;;8501385;27;20381;-48
2023/08/19 03:33:01;;;;;;;;;;;23.70;61.30;;;;;;8499837;27;19998;-49
2023/08/19 03:37:02;;;;;;;;;;;23.70;61.30;;;;;;8501052;27;19933;-52
2023/08/19 03:41:03;;;;;;;;;;;23.70;61.20;;;;;;8499445;27;20561;-51
2023/08/19 03:45:03;;;;;;;;;;;23.70;61.30;;;;;;8500767;27;19912;-51
2023/08/19 03:49:04;;;;;;;;;;;23.70;61.30;;;;;;8499869;27;20510;-50
2023/08/19 03:53:04;;;;;;;;;;;23.70;61.30;;;;;;8500514;27;20297;-47
2023/08/19 03:57:05;;;;;;;;;;;23.70;61.20;;;;;;8499669;27;19915;-49
2023/08/19 04:01:08;;;;;;;;;;;23.70;61.30;;;;;;8499602;27;19915;-51
2023/08/19 04:05:10;;;;;;;;;;;23.70;61.20;;;;;;8499381;27;19953;-50
2023/08/19 04:09:10;;;;;;;;;;;23.70;61.20;;;;;;8499894;27;19965;-49
2023/08/19 04:13:11;;;;;;;;;;;23.70;61.20;;;;;;8500055;27;19912;-50
2023/08/19 04:17:11;;;;;;;;;;;23.70;61.20;;;;;;8498175;27;20395;-49
2023/08/19 04:21:12;;;;;;;;;;;23.70;61.20;;;;;;8499536;27;20377;-52
2023/08/19 04:25:12;;;;;;;;;;;23.70;61.30;;;;;;8499234;27;19912;-50
2023/08/19 04:29:13;;;;;;;;;;;23.70;61.30;;;;;;8499347;27;19920;-50
2023/08/19 04:33:14;;;;;;;;;;;23.70;61.30;;;;;;8497893;27;19915;-51
2023/08/19 04:37:14;;;;;;;;;;;23.70;61.30;;;;;;8498905;27;20613;-49
2023/08/19 04:41:16;;;;;;;;;;;23.70;61.30;;;;;;8497482;27;19920;-50
2023/08/19 04:45:16;;;;;;;;;;;23.70;61.30;;;;;;8499419;27;20569;-52
2023/08/19 04:49:17;;;;;;;;;;;23.70;61.30;;;;;;8498714;27;20241;-52
2023/08/19 04:53:17;;;;;;;;;;;23.70;61.30;;;;;;8498058;27;19911;-51
2023/08/19 04:57:18;;;;;;;;;;;23.70;61.30;;;;;;8498559;27;19912;-51
2023/08/19 05:01:20;;;;;;;;;;;23.70;61.30;;;;;;8496691;27;19919;-49
2023/08/19 05:05:20;;;;;;;;;;;23.70;61.30;;;;;;8498124;27;20599;-52
2023/08/19 05:09:21;;;;;;;;;;;23.70;61.30;;;;;;8497102;27;20173;-52
2023/08/19 05:13:21;;;;;;;;;;;23.70;61.20;;;;;;8478471;27;19911;-50
2023/08/19 05:17:22;;;;;;;;;;;23.70;61.20;;;;;;8496285;27;20335;-49
2023/08/19 05:21:22;;;;;;;;;;;23.70;61.20;;;;;;8497556;27;19923;-50
2023/08/19 05:25:23;;;;;;;;;;;23.70;61.30;;;;;;8478576;27;20303;-50
2023/08/19 05:29:24;;;;;;;;;;;23.70;61.20;;;;;;8498071;27;20014;-52
2023/08/19 05:33:24;;;;;;;;;;;23.70;61.30;;;;;;8496481;27;19968;-49
2023/08/19 05:37:25;;;;;;;;;;;23.70;61.20;;;;;;8496318;27;20025;-51
2023/08/19 05:41:26;;;;;;;;;;;23.70;61.30;;;;;;8478888;27;20396;-49
2023/08/19 05:45:26;;;;;;;;;;;23.70;61.30;;;;;;8495770;27;19996;-50
2023/08/19 05:49:27;;;;;;;;;;;23.70;61.30;;;;;;8497014;27;19911;-52
2023/08/19 05:53:28;;;;;;;;;;;23.70;61.30;;;;;;8477599;28;19944;-51
2023/08/19 05:57:28;;;;;;;;;;;23.70;61.30;;;;;;8497035;27;19912;-50
2023/08/19 06:01:29;;;;;;;;;;;23.70;61.30;;;;;;8495871;28;20010;-52
2023/08/19 06:05:29;;;;;;;;;;;23.70;61.30;;;;;;8496777;28;19908;-52
2023/08/19 06:09:30;;;;;;;;;;;23.70;61.30;;;;;;8495818;28;19912;-52
2023/08/19 06:13:31;;;;;;;;;;;23.70;61.30;;;;;;8477731;28;20332;-49
2023/08/19 06:17:31;;;;;;;;;;;23.70;61.30;;;;;;8496234;28;19919;-51
2023/08/19 06:21:32;;;;;;;;;;;23.70;61.20;;;;;;8496042;28;19919;-51
2023/08/19 06:25:32;;;;;;;;;;;23.70;61.30;;;;;;8502522;27;19933;-50
2023/08/19 06:29:33;;;;;;;;;;;23.70;61.30;;;;;;8501731;27;19963;-49
2023/08/19 06:33:34;;;;;;;;;;;23.70;61.30;;;;;;8503255;27;19980;-50
2023/08/19 06:37:37;;;;;;;;;;;23.70;61.20;;;;;;8501522;27;19965;-49
2023/08/19 06:41:39;;;;;;;;;;;23.70;61.20;;;;;;8502852;27;20413;-50
2023/08/19 06:45:40;;;;;;;;;;;23.70;61.20;;;;;;8501332;27;20023;-50
2023/08/19 06:49:40;;;;;;;;;;;23.70;61.20;;;;;;8501968;27;19912;-50
2023/08/19 06:53:41;;;;;;;;;;;23.70;61.30;;;;;;8500833;27;19911;-50
2023/08/19 06:57:49;;;;;;;;;;;23.70;61.30;;;;;;8501425;27;19908;-50
2023/08/19 07:01:51;;;;;;;;;;;23.70;61.30;;;;;;8502631;27;19955;-49
2023/08/19 07:05:52;;;;;;;;;;;23.70;61.30;;;;;;8501381;27;20445;-52
2023/08/19 07:09:53;;;;;;;;;;;23.70;61.30;;;;;;8502423;27;20468;-51
2023/08/19 07:13:53;;;;;;;;;;;23.70;61.30;;;;;;8500392;27;20186;-52
2023/08/19 07:17:57;;;;;;;;;;;23.70;61.30;;;;;;8501494;27;20388;-52
2023/08/19 07:21:58;;;;;;;;;;;23.70;61.30;;;;;;8500196;27;20372;-51
2023/08/19 07:25:59;;;;;;;;;;;23.70;61.30;;;;;;8501597;27;20287;-52
2023/08/19 07:30:01;;;;;;;;;;;23.70;61.30;;;;;;8482085;27;19927;-52
2023/08/19 07:34:02;;;;;;;;;;;23.70;61.20;;;;;;8498870;27;19907;-52
2023/08/19 07:38:02;;;;;;;;;;;23.70;61.30;;;;;;8482009;27;19912;-50
2023/08/19 07:42:03;;;;;;;;;;;23.70;61.30;;;;;;8499653;27;20115;-52
2023/08/19 07:46:04;;;;;;;;;;;23.70;61.30;;;;;;8501081;27;19915;-51
2023/08/19 07:50:04;;;;;;;;;;;23.70;61.20;;;;;;8499532;27;19915;-51
2023/08/19 07:54:05;;;;;;;;;;;23.70;61.30;;;;;;8500511;27;20311;-52
2023/08/19 07:58:06;;;;;;;;;;;23.70;61.20;;;;;;8499273;27;20019;-49
2023/08/19 08:02:07;;;;;;;;;;;23.70;61.30;;;;;;8500161;27;19956;-49
2023/08/19 08:06:07;;;;;;;;;;;23.70;61.30;;;;;;8498604;27;19921;-50
2023/08/19 08:10:08;;;;;;;;;;;23.70;61.30;;;;;;8500462;27;19957;-50
2023/08/19 08:14:09;;;;;;;;;;;23.70;61.30;;;;;;8499100;27;19918;-52
2023/08/19 08:18:09;;;;;;;;;;;23.70;61.30;;;;;;8498717;27;19924;-50
2023/08/19 08:22:10;;;;;;;;;;;23.70;61.30;;;;;;8499707;27;19912;-50
2023/08/19 08:26:10;;;;;;;;;;;23.70;61.30;;;;;;8498543;27;20439;-49
2023/08/19 08:30:11;;;;;;;;;;;23.70;61.20;;;;;;8499237;27;19927;-50
2023/08/19 08:34:11;;;;;;;;;;;23.70;61.30;;;;;;8497949;27;19919;-50
2023/08/19 08:38:12;;;;;;;;;;;23.70;61.20;;;;;;8498972;27;19923;-51
2023/08/19 08:42:13;;;;;;;;;;;23.70;61.30;;;;;;8497646;27;20335;-49
2023/08/19 08:46:17;;;;;;;;;;;23.70;61.20;;;;;;8480223;27;19911;-50
2023/08/19 08:50:19;;;;;;;;;;;23.70;61.20;;;;;;8497470;27;19953;-49
2023/08/19 08:54:20;;;;;;;;;;;23.70;61.20;;;;;;8499217;27;19912;-50
2023/08/19 08:58:21;;;;;;;;;;;23.70;61.20;;;;;;8498147;27;20010;-49
2023/08/19 09:02:25;;;;;;;;;;;23.70;61.20;;;;;;8497532;27;19911;-51
2023/08/19 09:06:25;;;;;;;;;;;23.70;61.20;;;;;;8498400;27;20626;-52
2023/08/19 09:10:27;;;;;;;;;;;23.70;61.20;;;;;;8496677;27;20171;-49
2023/08/19 09:14:27;;;;;;;;;;;23.70;61.20;;;;;;8498246;27;20036;-50
2023/08/19 09:18:28;;;;;;;;;;;23.70;61.20;;;;;;8496696;27;19924;-51
2023/08/19 09:22:29;;;;;;;;;;;23.70;61.30;;;;;;8498285;27;19912;-49
2023/08/19 09:26:29;;;;;;;;;;;23.70;61.20;;;;;;8496748;27;20449;-51
2023/08/19 09:30:33;;;;;;;;;;;23.70;61.20;;;;;;8498009;27;19908;-49
2023/08/19 09:34:34;;;;;;;;;;;23.70;61.30;;;;;;8497055;27;19911;-49
2023/08/19 09:38:35;;;;;;;;;;;23.70;61.20;;;;;;8496872;27;20056;-49
2023/08/19 09:42:35;;;;;;;;;;;23.70;61.20;;;;;;8497808;27;19923;-49
2023/08/19 09:46:36;;;;;;;;;;;23.70;61.20;;;;;;8496067;27;19932;-51
2023/08/19 09:50:43;;;;;;;;;;;23.70;61.20;;;;;;8479105;28;20338;-51
2023/08/19 09:54:51;;;;;;;;;;;23.70;61.20;;;;;;8495898;27;20495;-50
2023/08/19 09:58:56;;;;;;;;;;;23.70;61.10;;;;;;8499736;27;19915;-49
2023/08/19 10:02:57;;;;;;;;;;;23.70;61.10;;;;;;8503110;27;19907;-49
2023/08/19 10:07:00;;;;;;;;;;;23.70;61.10;;;;;;8503807;27;19912;-52
2023/08/19 10:11:01;;;;;;;;;;;23.70;61.10;;;;;;8502974;27;19907;-51
2023/08/19 10:15:02;;;;;;;;;;;23.70;61.90;;;;;;8503109;27;19927;-50
2023/08/19 10:19:04;;;;;;;;;;;23.70;61.10;;;;;;8503432;27;19916;-49
2023/08/19 10:23:06;;;;;;;;;;;23.70;61.10;;;;;;8502109;27;19915;-50
2023/08/19 10:27:15;;;;;;;;;;;23.70;61.10;;;;;;8503733;27;20368;-49
2023/08/19 10:31:15;;;;;;;;;;;23.70;61.10;;;;;;8501635;27;19916;-50
2023/08/19 10:35:16;;;;;;;;;;;23.80;61.20;;;;;;8503321;27;19959;-51
2023/08/19 10:39:17;;;;;;;;;;;23.70;61.10;;;;;;8502921;27;20015;-50
2023/08/19 10:43:18;;;;;;;;;;;23.70;61.10;;;;;;8502129;27;19919;-49
2023/08/19 10:47:18;;;;;;;;;;;23.70;61.10;;;;;;8502241;27;19931;-52
2023/08/19 10:51:19;;;;;;;;;;;23.70;61.10;;;;;;8501906;27;19951;-50
2023/08/19 10:55:20;;;;;;;;;;;23.70;61.10;;;;;;8502590;27;19912;-49
2023/08/19 10:59:21;;;;;;;;;;;23.70;61.10;;;;;;8501902;27;19911;-50
2023/08/19 11:03:21;;;;;;;;;;;23.70;61.10;;;;;;8502407;27;19915;-51
2023/08/19 11:07:24;;;;;;;;;;;23.70;61.00;;;;;;8500580;27;19914;-50
2023/08/19 11:11:24;;;;;;;;;;;23.70;61.00;;;;;;8502012;27;19915;-48
2023/08/19 11:15:25;;;;;;;;;;;23.70;61.00;;;;;;8500332;27;19916;-49
2023/08/19 11:19:25;;;;;;;;;;;23.80;61.10;;;;;;8501303;27;19976;-50
2023/08/19 11:23:27;;;;;;;;;;;23.80;61.10;;;;;;8500889;27;19986;-51
2023/08/19 11:27:28;;;;;;;;;;;23.70;61.10;;;;;;8482327;27;19915;-51
2023/08/19 11:31:29;;;;;;;;;;;23.80;61.10;;;;;;8500709;27;19915;-51
2023/08/19 11:35:40;;;;;;;;;;;23.80;61.10;;;;;;8500748;27;19941;-51
2023/08/19 11:39:41;;;;;;;;;;;23.80;61.10;;;;;;8500924;27;19911;-51
2023/08/19 11:43:45;;;;;;;;;;;23.80;61.10;;;;;;8499610;27;19912;-49
2023/08/19 11:47:45;;;;;;;;;;;23.80;61.10;;;;;;8516616;27;20261;-49
2023/08/19 11:51:46;;;;;;;;;;;23.80;61.10;;;;;;8499424;27;19908;-52
2023/08/19 11:55:57;;;;;;;;;;;23.80;61.10;;;;;;8501066;27;20281;-51
2023/08/19 11:59:58;;;;;;;;;;;23.80;61.10;;;;;;8499707;27;19912;-49
2023/08/19 12:03:58;;;;;;;;;;;23.80;61.10;;;;;;8499713;27;19907;-52
2023/08/19 12:07:59;;;;;;;;;;;23.70;61.00;;;;;;8500047;27;19907;-49
2023/08/19 12:12:00;;;;;;;;;;;23.70;61.00;;;;;;8498563;27;19914;-49
2023/08/19 12:16:01;;;;;;;;;;;23.80;61.00;;;;;;8499280;27;20304;-51
2023/08/19 12:20:02;;;;;;;;;;;23.80;61.00;;;;;;8497777;27;19976;-51
2023/08/19 12:24:03;;;;;;;;;;;23.70;60.90;;;;;;8498275;27;20417;-49
2023/08/19 12:28:04;;;;;;;;;;;23.80;61.00;;;;;;8499047;27;20538;-50
2023/08/19 12:32:04;;;;;;;;;;;23.70;60.90;;;;;;8499536;27;19912;-51
2023/08/19 12:36:05;;;;;;;;;;;23.70;60.90;;;;;;8498681;27;19907;-51
2023/08/19 12:40:09;;;;;;;;;;;23.80;61.00;;;;;;8498437;27;19911;-52
2023/08/19 12:44:10;;;;;;;;;;;23.80;60.90;;;;;;8498641;27;19906;-51
2023/08/19 12:48:11;;;;;;;;;;;23.80;60.90;;;;;;8497460;27;19912;-51
2023/08/19 12:52:11;;;;;;;;;;;23.80;60.90;;;;;;8499019;27;19911;-51
2023/08/19 12:56:12;;;;;;;;;;;23.80;61.70;;;;;;8497215;27;19911;-51
2023/08/19 13:00:13;;;;;;;;;;;23.80;60.90;;;;;;8479385;27;20465;-49
2023/08/19 13:04:13;;;;;;;;;;;23.80;61.00;;;;;;8496736;27;19929;-50
2023/08/19 13:08:14;;;;;;;;;;;23.80;60.90;;;;;;8478985;27;19923;-50
2023/08/19 13:12:14;;;;;;;;;;;23.80;60.90;;;;;;8497056;27;20386;-50
2023/08/19 13:16:15;;;;;;;;;;;23.80;60.90;;;;;;8498077;27;19930;-50
2023/08/19 13:20:17;;;;;;;;;;;23.80;60.90;;;;;;8497078;27;20676;-51
2023/08/19 13:24:17;;;;;;;;;;;23.80;60.80;;;;;;8497532;27;19911;-50
2023/08/19 13:28:18;;;;;;;;;;;23.80;60.80;;;;;;8498075;27;19918;-49
2023/08/19 13:32:18;;;;;;;;;;;23.80;60.80;;;;;;8495274;27;20020;-50
2023/08/19 13:36:19;;;;;;;;;;;23.80;60.80;;;;;;8497283;27;20011;-52
2023/08/19 13:40:19;;;;;;;;;;;23.80;60.80;;;;;;8496008;27;19922;-52
2023/08/19 13:44:24;;;;;;;;;;;23.80;60.80;;;;;;8497221;27;20394;-50
2023/08/19 13:48:26;;;;;;;;;;;23.80;60.80;;;;;;8496183;27;19927;-49
2023/08/19 13:52:40;;;;;;;;;;;23.80;60.80;;;;;;8478743;27;20384;-48
2023/08/19 13:56:41;;;;;;;;;;;23.80;60.70;;;;;;8496712;27;19915;-50
2023/08/19 14:00:42;;;;;;;;;;;23.80;60.70;;;;;;8496153;28;19911;-50
2023/08/19 14:04:42;;;;;;;;;;;23.80;60.70;;;;;;8496754;28;19916;-49
2023/08/19 14:08:43;;;;;;;;;;;23.90;60.70;;;;;;8495359;28;20009;-51
2023/08/19 14:12:44;;;;;;;;;;;23.80;60.70;;;;;;8496659;28;19961;-48
2023/08/19 14:16:51;;;;;;;;;;;23.80;60.70;;;;;;8495670;28;19927;-48
2023/08/19 14:20:52;;;;;;;;;;;23.80;60.80;;;;;;8496458;28;19916;-51
2023/08/19 14:24:53;;;;;;;;;;;23.80;60.80;;;;;;8495554;27;19911;-51
2023/08/19 14:28:53;;;;;;;;;;;23.80;60.70;;;;;;8496506;28;19940;-49
2023/08/19 14:32:54;;;;;;;;;;;23.80;60.80;;;;;;8495654;28;20010;-49
2023/08/19 14:36:54;;;;;;;;;;;23.80;60.80;;;;;;8495739;28;19934;-49
2023/08/19 14:40:55;;;;;;;;;;;23.80;60.70;;;;;;8496263;28;20231;-51
2023/08/19 14:44:55;;;;;;;;;;;23.80;60.70;;;;;;8497726;27;19912;-50
2023/08/19 14:48:56;;;;;;;;;;;23.80;60.80;;;;;;8518893;27;19911;-50
2023/08/19 14:52:56;;;;;;;;;;;23.80;60.80;;;;;;8501079;27;19918;-50
2023/08/19 14:56:57;;;;;;;;;;;23.80;60.80;;;;;;8502565;27;20377;-50
2023/08/19 15:00:58;;;;;;;;;;;23.80;60.80;;;;;;8500888;27;19922;-49
2023/08/19 15:04:58;;;;;;;;;;;23.80;60.80;;;;;;8501943;27;20009;-49
2023/08/19 15:09:00;;;;;;;;;;;23.80;60.70;;;;;;8500625;27;19919;-50
2023/08/19 15:13:01;;;;;;;;;;;23.80;60.80;;;;;;8502059;27;19918;-49
2023/08/19 15:17:02;;;;;;;;;;;23.80;60.70;;;;;;8500930;27;19924;-50
2023/08/19 15:21:03;;;;;;;;;;;23.80;60.80;;;;;;8482483;27;19922;-52
2023/08/19 15:25:04;;;;;;;;;;;23.80;60.80;;;;;;8502632;27;19908;-50
2023/08/19 15:29:04;;;;;;;;;;;23.80;60.80;;;;;;8499803;27;20010;-51
2023/08/19 15:33:05;;;;;;;;;;;23.80;60.70;;;;;;8501332;27;19911;-51
2023/08/19 15:37:05;;;;;;;;;;;23.80;60.70;;;;;;8499770;27;19911;-50
2023/08/19 15:41:06;;;;;;;;;;;23.80;60.80;;;;;;8500782;27;19915;-50
2023/08/19 15:45:07;;;;;;;;;;;23.80;60.80;;;;;;8499625;27;20489;-50
2023/08/19 15:49:07;;;;;;;;;;;23.80;60.80;;;;;;8500769;27;19911;-50
2023/08/19 15:53:08;;;;;;;;;;;23.80;60.70;;;;;;8499607;27;20372;-52
2023/08/19 15:57:09;;;;;;;;;;;23.90;60.80;;;;;;8481453;27;19946;-51
2023/08/19 16:01:09;;;;;;;;;;;23.90;60.70;;;;;;8499388;27;19951;-50
2023/08/19 16:05:10;;;;;;;;;;;23.80;60.70;;;;;;8481278;27;19911;-50
2023/08/19 16:09:11;;;;;;;;;;;23.90;60.80;;;;;;8499973;27;19907;-49
2023/08/19 16:13:11;;;;;;;;;;;23.80;60.80;;;;;;8499395;27;20272;-49
2023/08/19 16:17:12;;;;;;;;;;;23.80;60.70;;;;;;8499753;27;19945;-51
2023/08/19 16:21:12;;;;;;;;;;;23.80;60.70;;;;;;8498062;27;20002;-49
2023/08/19 16:25:13;;;;;;;;;;;23.80;60.70;;;;;;8500059;27;19908;-49
2023/08/19 16:29:13;;;;;;;;;;;23.80;60.80;;;;;;8498265;27;20435;-49
2023/08/19 16:33:14;;;;;;;;;;;23.80;60.70;;;;;;8499468;27;20272;-50
2023/08/19 16:37:14;;;;;;;;;;;23.80;60.70;;;;;;8497669;27;19935;-49
2023/08/19 16:41:15;;;;;;;;;;;23.80;60.70;;;;;;8499325;27;19924;-52
2023/08/19 16:45:15;;;;;;;;;;;23.80;60.70;;;;;;8498139;27;20455;-50
2023/08/19 16:49:16;;;;;;;;;;;23.90;60.70;;;;;;8498857;27;19907;-49
2023/08/19 16:53:18;;;;;;;;;;;23.80;60.70;;;;;;8498608;27;19977;-50
2023/08/19 16:57:18;;;;;;;;;;;23.80;60.70;;;;;;8497424;27;20014;-48
2023/08/19 17:01:19;;;;;;;;;;;23.90;60.70;;;;;;8514632;27;19915;-48
2023/08/19 17:05:20;;;;;;;;;;;23.80;60.70;;;;;;8497909;27;19960;-51
2023/08/19 17:09:21;;;;;;;;;;;23.80;60.60;;;;;;8498311;27;19915;-49
2023/08/19 17:13:22;;;;;;;;;;;23.90;60.70;;;;;;8497033;27;19919;-48
2023/08/19 17:17:23;;;;;;;;;;;23.80;60.60;;;;;;8498345;27;20377;-49
2023/08/19 17:21:23;;;;;;;;;;;23.90;60.70;;;;;;8496712;27;20127;-48
2023/08/19 17:25:24;;;;;;;;;;;23.90;60.70;;;;;;8499077;27;19943;-49
2023/08/19 17:29:24;;;;;;;;;;;23.80;60.70;;;;;;8497338;27;19922;-50
2023/08/19 17:33:25;;;;;;;;;;;23.80;60.70;;;;;;8497393;27;19950;-50
2023/08/19 17:37:26;;;;;;;;;;;23.80;60.70;;;;;;8497707;27;19960;-51
2023/08/19 17:41:27;;;;;;;;;;;23.80;60.80;;;;;;8496072;27;19957;-52
2023/08/19 17:45:28;;;;;;;;;;;23.80;60.80;;;;;;8504921;27;19911;-48
2023/08/19 17:49:28;;;;;;;;;;;23.90;60.70;;;;;;8529868;27;19998;-49
2023/08/19 17:53:29;;;;;;;;;;;23.90;60.70;;;;;;8530492;27;19911;-50
2023/08/19 17:57:29;;;;;;;;;;;23.80;60.80;;;;;;8503121;27;19912;-49
2023/08/19 18:01:30;;;;;;;;;;;23.80;60.80;;;;;;8497055;28;19922;-51
2023/08/19 18:05:30;;;;;;;;;;;23.80;60.70;;;;;;8496409;28;19911;-50
2023/08/19 18:09:31;;;;;;;;;;;23.80;60.70;;;;;;8496611;28;19911;-50
2023/08/19 18:13:31;;;;;;;;;;;23.80;60.80;;;;;;8496406;28;19912;-49
2023/08/19 18:17:32;;;;;;;;;;;23.80;60.80;;;;;;8495861;28;20380;-49
2023/08/19 18:21:32;;;;;;;;;;;23.80;60.80;;;;;;8502224;27;19915;-49
2023/08/19 18:25:33;;;;;;;;;;;23.80;60.80;;;;;;8502764;27;19916;-48
2023/08/19 18:29:34;;;;;;;;;;;23.90;60.80;;;;;;8502715;27;20055;-49
2023/08/19 18:33:34;;;;;;;;;;;23.80;60.80;;;;;;8501462;27;19908;-49
2023/08/19 18:37:36;;;;;;;;;;;23.80;60.80;;;;;;8502597;27;19938;-50
2023/08/19 18:41:36;;;;;;;;;;;23.80;60.80;;;;;;8502152;27;20014;-48
2023/08/19 18:45:38;;;;;;;;;;;23.80;60.80;;;;;;8484780;27;19923;-49
2023/08/19 18:49:39;;;;;;;;;;;23.90;60.90;;;;;;8502309;27;19911;-48
2023/08/19 18:53:39;;;;;;;;;;;23.80;60.80;;;;;;8501921;27;19960;-48
2023/08/19 18:57:40;;;;;;;;;;;23.80;60.80;;;;;;8502169;27;19912;-48
2023/08/19 19:01:40;;;;;;;;;;;23.90;60.80;;;;;;8501552;27;19919;-51
2023/08/19 19:05:41;;;;;;;;;;;23.80;60.80;;;;;;8502396;27;19956;-51
2023/08/19 19:09:42;;;;;;;;;;;23.80;60.80;;;;;;8500911;27;19918;-49
2023/08/19 19:13:42;;;;;;;;;;;23.80;60.80;;;;;;8501881;27;19911;-51
2023/08/19 19:17:53;;;;;;;;;;;23.90;60.80;;;;;;8500618;27;20320;-50
2023/08/19 19:21:53;;;;;;;;;;;23.90;60.90;;;;;;8501901;27;20372;-49
2023/08/19 19:25:58;;;;;;;;;;;23.80;60.80;;;;;;8500464;27;20280;-49
2023/08/19 19:29:58;;;;;;;;;;;23.90;60.90;;;;;;8499898;27;19911;-49
2023/08/19 19:33:59;;;;;;;;;;;23.80;60.80;;;;;;8481762;27;19912;-48
2023/08/19 19:38:00;;;;;;;;;;;23.80;60.80;;;;;;8500600;27;19918;-49
2023/08/19 19:42:00;;;;;;;;;;;23.90;60.90;;;;;;8500696;27;20277;-51
2023/08/19 19:46:01;;;;;;;;;;;23.80;60.80;;;;;;8499842;27;19957;-48
2023/08/19 19:50:02;;;;;;;;;;;23.90;60.80;;;;;;8500475;27;20288;-48
2023/08/19 19:54:03;;;;;;;;;;;23.80;60.80;;;;;;8499457;27;19908;-51
2023/08/19 19:58:04;;;;;;;;;;;23.90;60.90;;;;;;8500727;27;19907;-50
2023/08/19 20:02:04;;;;;;;;;;;23.80;60.80;;;;;;8499042;27;19911;-51
2023/08/19 20:06:05;;;;;;;;;;;23.80;60.80;;;;;;8500281;27;20648;-51
2023/08/19 20:10:06;;;;;;;;;;;23.90;60.90;;;;;;8499518;27;20421;-49
2023/08/19 20:14:06;;;;;;;;;;;23.80;60.90;;;;;;8499065;27;19956;-47
2023/08/19 20:18:07;;;;;;;;;;;23.80;60.90;;;;;;8498890;27;19951;-49
2023/08/19 20:22:07;;;;;;;;;;;23.80;60.90;;;;;;8499610;27;20214;-48
2023/08/19 20:26:08;;;;;;;;;;;23.80;60.90;;;;;;8499734;27;19947;-50
2023/08/19 20:30:08;;;;;;;;;;;23.80;60.90;;;;;;8498215;27;19911;-49
2023/08/19 20:34:09;;;;;;;;;;;23.80;60.80;;;;;;8499149;27;19911;-50
2023/08/19 20:38:10;;;;;;;;;;;23.80;60.80;;;;;;8513996;27;19911;-48
2023/08/19 20:42:10;;;;;;;;;;;23.80;60.90;;;;;;8498712;27;19915;-48
2023/08/19 20:46:11;;;;;;;;;;;23.80;60.80;;;;;;8497460;27;19919;-50
2023/08/19 20:50:11;;;;;;;;;;;23.80;60.80;;;;;;8514912;27;19912;-50
2023/08/19 20:54:12;;;;;;;;;;;23.90;60.90;;;;;;8497989;27;19911;-49
2023/08/19 20:58:12;;;;;;;;;;;23.80;60.80;;;;;;8497850;27;19915;-50
2023/08/19 21:02:13;;;;;;;;;;;23.80;60.90;;;;;;8497807;27;20215;-48
2023/08/19 21:06:14;;;;;;;;;;;23.80;60.80;;;;;;8498193;27;19912;-49
2023/08/19 21:10:14;;;;;;;;;;;23.80;60.90;;;;;;8497897;27;19958;-50
2023/08/19 21:14:15;;;;;;;;;;;23.90;60.90;;;;;;8496747;27;19938;-48
2023/08/19 21:18:15;;;;;;;;;;;23.90;60.90;;;;;;8497844;27;19927;-50
2023/08/19 21:22:16;;;;;;;;;;;23.80;60.80;;;;;;8496682;27;19998;-50
2023/08/19 21:26:16;;;;;;;;;;;23.80;60.80;;;;;;8498165;27;20364;-49
2023/08/19 21:30:19;;;;;;;;;;;23.80;60.90;;;;;;8495377;27;20222;-48
2023/08/19 21:34:19;;;;;;;;;;;23.80;61.00;;;;;;8497894;27;20437;-48
2023/08/19 21:38:20;;;;;;;;;;;23.80;61.00;;;;;;8496817;27;20535;-51
2023/08/19 21:42:21;;;;;;;;;;;23.80;61.00;;;;;;8496892;27;19908;-49
2023/08/19 21:46:21;;;;;;;;;;;23.80;60.90;;;;;;8497732;27;19954;-51
2023/08/19 21:50:24;;;;;;;;;;;23.80;60.90;;;;;;8496102;27;20265;-48
2023/08/19 21:54:25;;;;;;;;;;;23.90;60.90;;;;;;8496463;27;19961;-48
2023/08/19 21:58:25;;;;;;;;;;;23.80;60.90;;;;;;8495645;28;20006;-49
2023/08/19 22:02:26;;;;;;;;;;;23.90;61.70;;;;;;8497022;28;19915;-48
2023/08/19 22:06:26;;;;;;;;;;;23.80;60.90;;;;;;8495530;28;19911;-51
2023/08/19 22:10:27;;;;;;;;;;;23.80;60.90;;;;;;8496964;28;19908;-49
2023/08/19 22:14:27;;;;;;;;;;;23.80;60.90;;;;;;8495660;28;19911;-49
2023/08/19 22:18:28;;;;;;;;;;;23.80;60.80;;;;;;8496234;28;19920;-50
2023/08/19 22:22:28;;;;;;;;;;;23.80;61.70;;;;;;8495963;28;19916;-51
2023/08/19 22:26:29;;;;;;;;;;;23.80;60.90;;;;;;8496065;27;19912;-51
2023/08/19 22:30:29;;;;;;;;;;;23.80;60.80;;;;;;8497103;28;19912;-50
2023/08/19 22:34:30;;;;;;;;;;;23.80;60.80;;;;;;8476716;28;20258;-50
2023/08/19 22:38:30;;;;;;;;;;;23.80;60.80;;;;;;8496306;28;19911;-51
2023/08/19 22:42:31;;;;;;;;;;;23.80;60.90;;;;;;8494966;28;20383;-51
2023/08/19 22:46:31;;;;;;;;;;;23.80;61.00;;;;;;8496326;28;19912;-49
2023/08/19 22:50:32;;;;;;;;;;;23.80;60.90;;;;;;8476640;28;19911;-50
2023/08/19 22:54:33;;;;;;;;;;;23.80;61.00;;;;;;8496606;27;19919;-49
2023/08/19 22:58:34;;;;;;;;;;;23.80;61.00;;;;;;8494795;28;19963;-49
2023/08/19 23:02:34;;;;;;;;;;;23.80;60.90;;;;;;8496405;28;19911;-50
2023/08/19 23:06:35;;;;;;;;;;;23.80;60.90;;;;;;8498880;27;19916;-50
2023/08/19 23:10:35;;;;;;;;;;;23.80;60.90;;;;;;8501625;27;20435;-49
2023/08/19 23:14:36;;;;;;;;;;;23.80;60.90;;;;;;8502319;27;19911;-50
2023/08/19 23:18:36;;;;;;;;;;;23.80;60.90;;;;;;8500133;27;19931;-51
2023/08/19 23:22:37;;;;;;;;;;;23.80;60.90;;;;;;8500668;27;19922;-51